sensor_id;sensor_type;location;lat;lon;timestamp;P1;durP1;ratioP1;P2;durP2;ratioP2
18445;SDS011;9352;50.888;4.466;2023-03-23T00:01:28;9.02;;;3.95;;
18445;SDS011;9352;50.888;4.466;2023-03-23T00:03:57;5.55;;;3.97;;
18445;SDS011;9352;50.888;4.466;2023-03-23T00:06:26;4.88;;;3.55;;
18445;SDS011;9352;50.888;4.466;2023-03-23T00:09:01;5.57;;;3.63;;
18445;SDS011;9352;50.888;4.466;2023-03-23T00:11:29;4.93;;;4.13;;
18445;SDS011;9352;50.888;4.466;2023-03-23T00:13:58;5.68;;;3.97;;
18445;SDS011;9352;50.888;4.466;2023-03-23T00:16:27;6.30;;;4.05;;
18445;SDS011;9352;50.888;4.466;2023-03-23T00:18:57;4.97;;;3.78;;
18445;SDS011;9352;50.888;4.466;2023-03-23T00:21:25;6.95;;;4.22;;
18445;SDS011;9352;50.888;4.466;2023-03-23T00:23:58;5.90;;;4.20;;
18445;SDS011;9352;50.888;4.466;2023-03-23T00:26:28;4.10;;;3.70;;
18445;SDS011;9352;50.888;4.466;2023-03-23T00:28:58;4.25;;;3.65;;
18445;SDS011;9352;50.888;4.466;2023-03-23T00:31:26;5.13;;;3.67;;
18445;SDS011;9352;50.888;4.466;2023-03-23T00:33:56;7.43;;;3.83;;
18445;SDS011;9352;50.888;4.466;2023-03-23T00:36:26;6.80;;;3.90;;
18445;SDS011;9352;50.888;4.466;2023-03-23T00:38:53;6.65;;;3.65;;
18445;SDS011;9352;50.888;4.466;2023-03-23T00:41:24;7.00;;;3.80;;
18445;SDS011;9352;50.888;4.466;2023-03-23T00:43:53;4.30;;;3.60;;
18445;SDS011;9352;50.888;4.466;2023-03-23T00:46:20;3.97;;;3.58;;
18445;SDS011;9352;50.888;4.466;2023-03-23T00:48:47;4.10;;;3.50;;
18445;SDS011;9352;50.888;4.466;2023-03-23T00:51:15;10.05;;;3.80;;
18445;SDS011;9352;50.888;4.466;2023-03-23T00:53:43;4.88;;;3.75;;
18445;SDS011;9352;50.888;4.466;2023-03-23T00:56:10;6.20;;;3.78;;
18445;SDS011;9352;50.888;4.466;2023-03-23T00:58:39;3.78;;;3.47;;
18445;SDS011;9352;50.888;4.466;2023-03-23T01:01:06;4.93;;;3.30;;
18445;SDS011;9352;50.888;4.466;2023-03-23T01:03:34;4.82;;;3.65;;
18445;SDS011;9352;50.888;4.466;2023-03-23T01:06:04;7.72;;;3.75;;
18445;SDS011;9352;50.888;4.466;2023-03-23T01:08:33;4.13;;;3.65;;
18445;SDS011;9352;50.888;4.466;2023-03-23T01:11:02;5.38;;;3.42;;
18445;SDS011;9352;50.888;4.466;2023-03-23T01:13:32;3.85;;;3.45;;
18445;SDS011;9352;50.888;4.466;2023-03-23T01:16:01;6.53;;;3.75;;
18445;SDS011;9352;50.888;4.466;2023-03-23T01:18:28;4.15;;;3.75;;
18445;SDS011;9352;50.888;4.466;2023-03-23T01:20:55;4.03;;;3.63;;
18445;SDS011;9352;50.888;4.466;2023-03-23T01:23:22;4.32;;;3.78;;
18445;SDS011;9352;50.888;4.466;2023-03-23T01:25:49;5.72;;;3.85;;
18445;SDS011;9352;50.888;4.466;2023-03-23T01:28:19;5.50;;;3.65;;
18445;SDS011;9352;50.888;4.466;2023-03-23T01:30:46;5.63;;;3.50;;
18445;SDS011;9352;50.888;4.466;2023-03-23T01:33:14;5.25;;;3.92;;
18445;SDS011;9352;50.888;4.466;2023-03-23T01:35:41;6.05;;;3.85;;
18445;SDS011;9352;50.888;4.466;2023-03-23T01:38:08;4.68;;;3.50;;
18445;SDS011;9352;50.888;4.466;2023-03-23T01:40:35;4.47;;;3.58;;
18445;SDS011;9352;50.888;4.466;2023-03-23T01:43:02;6.00;;;3.67;;
18445;SDS011;9352;50.888;4.466;2023-03-23T01:45:30;5.60;;;3.50;;
18445;SDS011;9352;50.888;4.466;2023-03-23T01:48:05;7.03;;;3.38;;
18445;SDS011;9352;50.888;4.466;2023-03-23T01:50:40;3.97;;;3.22;;
18445;SDS011;9352;50.888;4.466;2023-03-23T01:53:13;5.72;;;3.45;;
18445;SDS011;9352;50.888;4.466;2023-03-23T01:55:41;4.43;;;3.42;;
18445;SDS011;9352;50.888;4.466;2023-03-23T01:58:13;4.10;;;3.10;;
18445;SDS011;9352;50.888;4.466;2023-03-23T02:00:43;3.53;;;2.90;;
18445;SDS011;9352;50.888;4.466;2023-03-23T02:03:10;5.63;;;3.40;;
18445;SDS011;9352;50.888;4.466;2023-03-23T02:05:42;3.63;;;3.20;;
18445;SDS011;9352;50.888;4.466;2023-03-23T02:08:09;3.97;;;3.25;;
18445;SDS011;9352;50.888;4.466;2023-03-23T02:10:39;4.80;;;3.40;;
18445;SDS011;9352;50.888;4.466;2023-03-23T02:13:07;4.30;;;2.88;;
18445;SDS011;9352;50.888;4.466;2023-03-23T02:15:41;6.20;;;3.35;;
18445;SDS011;9352;50.888;4.466;2023-03-23T02:18:16;4.68;;;3.00;;
18445;SDS011;9352;50.888;4.466;2023-03-23T02:21:01;7.75;;;3.03;;
18445;SDS011;9352;50.888;4.466;2023-03-23T02:23:53;3.20;;;2.88;;
18445;SDS011;9352;50.888;4.466;2023-03-23T02:26:50;3.67;;;2.55;;
18445;SDS011;9352;50.888;4.466;2023-03-23T02:32:21;4.15;;;2.55;;
18445;SDS011;9352;50.888;4.466;2023-03-23T02:35:07;5.38;;;2.63;;
18445;SDS011;9352;50.888;4.466;2023-03-23T02:37:38;4.05;;;2.20;;
18445;SDS011;9352;50.888;4.466;2023-03-23T02:40:12;4.45;;;2.33;;
18445;SDS011;9352;50.888;4.466;2023-03-23T02:42:44;4.10;;;2.20;;
18445;SDS011;9352;50.888;4.466;2023-03-23T02:45:16;2.35;;;2.13;;
18445;SDS011;9352;50.888;4.466;2023-03-23T02:47:45;4.78;;;1.98;;
18445;SDS011;9352;50.888;4.466;2023-03-23T02:50:17;4.22;;;1.90;;
18445;SDS011;9352;50.888;4.466;2023-03-23T02:52:48;4.25;;;2.00;;
18445;SDS011;9352;50.888;4.466;2023-03-23T02:55:18;2.08;;;1.60;;
18445;SDS011;9352;50.888;4.466;2023-03-23T02:57:45;2.80;;;2.03;;
18445;SDS011;9352;50.888;4.466;2023-03-23T03:00:14;6.13;;;1.35;;
18445;SDS011;9352;50.888;4.466;2023-03-23T03:02:43;5.63;;;1.60;;
18445;SDS011;9352;50.888;4.466;2023-03-23T03:05:14;5.40;;;1.60;;
18445;SDS011;9352;50.888;4.466;2023-03-23T03:07:56;6.63;;;1.67;;
18445;SDS011;9352;50.888;4.466;2023-03-23T03:10:31;3.33;;;1.63;;
18445;SDS011;9352;50.888;4.466;2023-03-23T03:13:05;4.43;;;1.80;;
18445;SDS011;9352;50.888;4.466;2023-03-23T03:15:39;2.90;;;1.70;;
18445;SDS011;9352;50.888;4.466;2023-03-23T03:18:12;3.63;;;1.80;;
18445;SDS011;9352;50.888;4.466;2023-03-23T03:20:45;3.95;;;1.45;;
18445;SDS011;9352;50.888;4.466;2023-03-23T03:23:15;2.83;;;1.60;;
18445;SDS011;9352;50.888;4.466;2023-03-23T03:25:43;5.60;;;1.60;;
18445;SDS011;9352;50.888;4.466;2023-03-23T03:28:14;2.28;;;1.55;;
18445;SDS011;9352;50.888;4.466;2023-03-23T03:30:46;2.38;;;1.55;;
18445;SDS011;9352;50.888;4.466;2023-03-23T03:33:16;4.30;;;1.50;;
18445;SDS011;9352;50.888;4.466;2023-03-23T03:35:46;5.43;;;1.63;;
18445;SDS011;9352;50.888;4.466;2023-03-23T03:38:14;3.00;;;1.50;;
18445;SDS011;9352;50.888;4.466;2023-03-23T03:40:42;6.15;;;1.75;;
18445;SDS011;9352;50.888;4.466;2023-03-23T03:43:09;3.97;;;1.80;;
18445;SDS011;9352;50.888;4.466;2023-03-23T03:45:36;5.18;;;1.55;;
18445;SDS011;9352;50.888;4.466;2023-03-23T03:48:03;3.65;;;1.73;;
18445;SDS011;9352;50.888;4.466;2023-03-23T03:50:30;3.42;;;1.60;;
18445;SDS011;9352;50.888;4.466;2023-03-23T03:52:58;7.88;;;1.63;;
18445;SDS011;9352;50.888;4.466;2023-03-23T03:55:25;7.00;;;1.70;;
18445;SDS011;9352;50.888;4.466;2023-03-23T03:57:53;9.48;;;1.88;;
18445;SDS011;9352;50.888;4.466;2023-03-23T04:00:20;8.75;;;2.05;;
18445;SDS011;9352;50.888;4.466;2023-03-23T04:02:49;6.82;;;1.77;;
18445;SDS011;9352;50.888;4.466;2023-03-23T04:05:19;6.40;;;1.75;;
18445;SDS011;9352;50.888;4.466;2023-03-23T04:07:47;7.15;;;2.28;;
18445;SDS011;9352;50.888;4.466;2023-03-23T04:10:18;7.68;;;2.42;;
18445;SDS011;9352;50.888;4.466;2023-03-23T04:12:47;4.30;;;2.00;;
18445;SDS011;9352;50.888;4.466;2023-03-23T04:15:14;6.03;;;2.10;;
18445;SDS011;9352;50.888;4.466;2023-03-23T04:17:41;7.45;;;1.73;;
18445;SDS011;9352;50.888;4.466;2023-03-23T04:20:09;6.25;;;2.05;;
18445;SDS011;9352;50.888;4.466;2023-03-23T04:22:42;5.97;;;2.20;;
18445;SDS011;9352;50.888;4.466;2023-03-23T04:25:10;4.80;;;1.80;;
18445;SDS011;9352;50.888;4.466;2023-03-23T04:27:41;9.95;;;2.00;;
18445;SDS011;9352;50.888;4.466;2023-03-23T04:30:11;10.75;;;2.10;;
18445;SDS011;9352;50.888;4.466;2023-03-23T04:32:39;9.50;;;1.70;;
18445;SDS011;9352;50.888;4.466;2023-03-23T04:35:07;6.55;;;1.60;;
18445;SDS011;9352;50.888;4.466;2023-03-23T04:37:36;8.93;;;1.90;;
18445;SDS011;9352;50.888;4.466;2023-03-23T04:40:04;8.95;;;1.83;;
18445;SDS011;9352;50.888;4.466;2023-03-23T04:42:36;6.47;;;1.90;;
18445;SDS011;9352;50.888;4.466;2023-03-23T04:45:06;8.85;;;1.80;;
18445;SDS011;9352;50.888;4.466;2023-03-23T04:47:35;7.90;;;2.03;;
18445;SDS011;9352;50.888;4.466;2023-03-23T04:50:06;6.00;;;1.90;;
18445;SDS011;9352;50.888;4.466;2023-03-23T04:52:34;12.52;;;1.77;;
18445;SDS011;9352;50.888;4.466;2023-03-23T04:55:03;12.98;;;1.90;;
18445;SDS011;9352;50.888;4.466;2023-03-23T04:57:31;6.18;;;2.05;;
18445;SDS011;9352;50.888;4.466;2023-03-23T04:59:59;8.82;;;1.60;;
18445;SDS011;9352;50.888;4.466;2023-03-23T05:02:31;11.90;;;2.00;;
18445;SDS011;9352;50.888;4.466;2023-03-23T05:04:58;6.63;;;1.88;;
18445;SDS011;9352;50.888;4.466;2023-03-23T05:07:25;4.13;;;1.55;;
18445;SDS011;9352;50.888;4.466;2023-03-23T05:09:52;6.38;;;1.65;;
18445;SDS011;9352;50.888;4.466;2023-03-23T05:12:19;7.22;;;2.05;;
18445;SDS011;9352;50.888;4.466;2023-03-23T05:14:46;4.30;;;1.80;;
18445;SDS011;9352;50.888;4.466;2023-03-23T05:17:13;7.32;;;1.67;;
18445;SDS011;9352;50.888;4.466;2023-03-23T05:19:43;5.65;;;1.85;;
18445;SDS011;9352;50.888;4.466;2023-03-23T05:22:12;6.13;;;1.70;;
18445;SDS011;9352;50.888;4.466;2023-03-23T05:24:39;4.63;;;1.65;;
18445;SDS011;9352;50.888;4.466;2023-03-23T05:27:07;8.25;;;2.50;;
18445;SDS011;9352;50.888;4.466;2023-03-23T05:29:34;4.07;;;1.98;;
18445;SDS011;9352;50.888;4.466;2023-03-23T05:32:02;6.18;;;2.15;;
18445;SDS011;9352;50.888;4.466;2023-03-23T05:34:30;5.80;;;1.58;;
18445;SDS011;9352;50.888;4.466;2023-03-23T05:36:59;3.25;;;1.90;;
18445;SDS011;9352;50.888;4.466;2023-03-23T05:39:28;8.93;;;2.33;;
18445;SDS011;9352;50.888;4.466;2023-03-23T05:41:56;5.82;;;1.98;;
18445;SDS011;9352;50.888;4.466;2023-03-23T05:44:23;7.93;;;1.80;;
18445;SDS011;9352;50.888;4.466;2023-03-23T05:46:51;6.93;;;2.00;;
18445;SDS011;9352;50.888;4.466;2023-03-23T05:49:18;3.35;;;1.77;;
18445;SDS011;9352;50.888;4.466;2023-03-23T05:51:45;5.43;;;1.90;;
18445;SDS011;9352;50.888;4.466;2023-03-23T05:54:14;8.90;;;2.13;;
18445;SDS011;9352;50.888;4.466;2023-03-23T05:56:40;5.40;;;1.92;;
18445;SDS011;9352;50.888;4.466;2023-03-23T05:59:09;2.03;;;1.80;;
18445;SDS011;9352;50.888;4.466;2023-03-23T06:01:36;5.07;;;2.10;;
18445;SDS011;9352;50.888;4.466;2023-03-23T06:04:03;3.83;;;1.60;;
18445;SDS011;9352;50.888;4.466;2023-03-23T06:06:30;3.33;;;1.90;;
18445;SDS011;9352;50.888;4.466;2023-03-23T06:08:57;7.13;;;2.25;;
18445;SDS011;9352;50.888;4.466;2023-03-23T06:11:26;9.15;;;2.55;;
18445;SDS011;9352;50.888;4.466;2023-03-23T06:13:53;4.85;;;1.58;;
18445;SDS011;9352;50.888;4.466;2023-03-23T06:16:20;10.70;;;2.35;;
18445;SDS011;9352;50.888;4.466;2023-03-23T06:18:47;6.38;;;1.83;;
18445;SDS011;9352;50.888;4.466;2023-03-23T06:21:14;6.10;;;2.17;;
18445;SDS011;9352;50.888;4.466;2023-03-23T06:23:43;5.38;;;1.90;;
18445;SDS011;9352;50.888;4.466;2023-03-23T06:26:10;9.23;;;2.28;;
18445;SDS011;9352;50.888;4.466;2023-03-23T06:28:42;4.28;;;2.20;;
18445;SDS011;9352;50.888;4.466;2023-03-23T06:31:09;7.88;;;1.90;;
18445;SDS011;9352;50.888;4.466;2023-03-23T06:33:37;10.32;;;2.50;;
18445;SDS011;9352;50.888;4.466;2023-03-23T06:36:04;13.15;;;2.88;;
18445;SDS011;9352;50.888;4.466;2023-03-23T06:38:32;6.85;;;2.03;;
18445;SDS011;9352;50.888;4.466;2023-03-23T06:40:59;8.07;;;2.00;;
18445;SDS011;9352;50.888;4.466;2023-03-23T06:43:27;5.03;;;2.03;;
18445;SDS011;9352;50.888;4.466;2023-03-23T06:45:58;7.65;;;1.88;;
18445;SDS011;9352;50.888;4.466;2023-03-23T06:48:25;8.10;;;2.25;;
18445;SDS011;9352;50.888;4.466;2023-03-23T06:50:52;8.65;;;2.08;;
18445;SDS011;9352;50.888;4.466;2023-03-23T06:53:19;12.27;;;2.38;;
18445;SDS011;9352;50.888;4.466;2023-03-23T06:55:46;10.27;;;2.38;;
18445;SDS011;9352;50.888;4.466;2023-03-23T06:58:13;9.55;;;2.30;;
18445;SDS011;9352;50.888;4.466;2023-03-23T07:00:40;9.57;;;2.38;;
18445;SDS011;9352;50.888;4.466;2023-03-23T07:03:09;7.85;;;2.28;;
18445;SDS011;9352;50.888;4.466;2023-03-23T07:05:36;9.02;;;2.50;;
18445;SDS011;9352;50.888;4.466;2023-03-23T07:08:03;8.93;;;1.75;;
18445;SDS011;9352;50.888;4.466;2023-03-23T07:10:31;4.53;;;1.27;;
18445;SDS011;9352;50.888;4.466;2023-03-23T07:12:58;2.65;;;1.30;;
18445;SDS011;9352;50.888;4.466;2023-03-23T07:15:25;7.10;;;1.25;;
18445;SDS011;9352;50.888;4.466;2023-03-23T07:17:52;6.95;;;1.10;;
18445;SDS011;9352;50.888;4.466;2023-03-23T07:20:21;2.25;;;1.10;;
18445;SDS011;9352;50.888;4.466;2023-03-23T07:22:48;4.60;;;1.05;;
18445;SDS011;9352;50.888;4.466;2023-03-23T07:25:16;4.43;;;1.38;;
18445;SDS011;9352;50.888;4.466;2023-03-23T07:27:44;2.25;;;1.13;;
18445;SDS011;9352;50.888;4.466;2023-03-23T07:30:12;4.25;;;1.20;;
18445;SDS011;9352;50.888;4.466;2023-03-23T07:32:40;5.70;;;1.20;;
18445;SDS011;9352;50.888;4.466;2023-03-23T07:35:07;4.78;;;1.48;;
18445;SDS011;9352;50.888;4.466;2023-03-23T07:37:36;4.10;;;1.45;;
18445;SDS011;9352;50.888;4.466;2023-03-23T07:40:03;2.42;;;1.50;;
18445;SDS011;9352;50.888;4.466;2023-03-23T07:42:39;7.07;;;1.35;;
18445;SDS011;9352;50.888;4.466;2023-03-23T07:45:07;5.20;;;1.92;;
18445;SDS011;9352;50.888;4.466;2023-03-23T07:47:35;3.05;;;1.52;;
18445;SDS011;9352;50.888;4.466;2023-03-23T07:50:02;7.05;;;1.83;;
18445;SDS011;9352;50.888;4.466;2023-03-23T07:52:31;2.13;;;1.75;;
18445;SDS011;9352;50.888;4.466;2023-03-23T07:54:59;7.88;;;1.88;;
18445;SDS011;9352;50.888;4.466;2023-03-23T07:57:28;4.82;;;1.70;;
18445;SDS011;9352;50.888;4.466;2023-03-23T07:59:55;3.28;;;2.00;;
18445;SDS011;9352;50.888;4.466;2023-03-23T08:02:22;3.78;;;2.30;;
18445;SDS011;9352;50.888;4.466;2023-03-23T08:04:50;13.95;;;2.38;;
18445;SDS011;9352;50.888;4.466;2023-03-23T08:07:18;8.23;;;2.67;;
18445;SDS011;9352;50.888;4.466;2023-03-23T08:09:45;10.38;;;2.60;;
18445;SDS011;9352;50.888;4.466;2023-03-23T08:12:15;8.13;;;2.53;;
18445;SDS011;9352;50.888;4.466;2023-03-23T08:14:42;12.27;;;2.45;;
18445;SDS011;9352;50.888;4.466;2023-03-23T08:17:08;8.60;;;2.20;;
18445;SDS011;9352;50.888;4.466;2023-03-23T08:19:36;4.18;;;1.90;;
18445;SDS011;9352;50.888;4.466;2023-03-23T08:22:03;5.13;;;1.60;;
18445;SDS011;9352;50.888;4.466;2023-03-23T08:24:30;4.47;;;1.35;;
18445;SDS011;9352;50.888;4.466;2023-03-23T08:26:58;2.85;;;1.80;;
18445;SDS011;9352;50.888;4.466;2023-03-23T08:29:26;2.30;;;1.52;;
18445;SDS011;9352;50.888;4.466;2023-03-23T08:31:53;7.80;;;1.67;;
18445;SDS011;9352;50.888;4.466;2023-03-23T08:34:20;6.18;;;1.65;;
18445;SDS011;9352;50.888;4.466;2023-03-23T08:36:47;3.22;;;1.30;;
18445;SDS011;9352;50.888;4.466;2023-03-23T08:39:16;11.00;;;1.75;;
18445;SDS011;9352;50.888;4.466;2023-03-23T08:41:44;4.35;;;1.50;;
18445;SDS011;9352;50.888;4.466;2023-03-23T08:44:11;1.70;;;1.10;;
18445;SDS011;9352;50.888;4.466;2023-03-23T08:46:39;3.22;;;1.50;;
18445;SDS011;9352;50.888;4.466;2023-03-23T08:49:06;3.58;;;1.45;;
18445;SDS011;9352;50.888;4.466;2023-03-23T08:51:33;7.18;;;1.40;;
18445;SDS011;9352;50.888;4.466;2023-03-23T08:54:00;5.03;;;1.40;;
18445;SDS011;9352;50.888;4.466;2023-03-23T08:56:28;6.47;;;1.45;;
18445;SDS011;9352;50.888;4.466;2023-03-23T08:58:55;5.13;;;1.40;;
18445;SDS011;9352;50.888;4.466;2023-03-23T09:01:22;4.65;;;1.30;;
18445;SDS011;9352;50.888;4.466;2023-03-23T09:03:50;7.22;;;1.83;;
18445;SDS011;9352;50.888;4.466;2023-03-23T09:06:17;6.88;;;1.80;;
18445;SDS011;9352;50.888;4.466;2023-03-23T09:08:44;6.22;;;1.50;;
18445;SDS011;9352;50.888;4.466;2023-03-23T09:11:11;10.88;;;1.83;;
18445;SDS011;9352;50.888;4.466;2023-03-23T09:13:38;4.85;;;1.63;;
18445;SDS011;9352;50.888;4.466;2023-03-23T09:16:06;6.40;;;1.60;;
18445;SDS011;9352;50.888;4.466;2023-03-23T09:18:33;3.63;;;1.45;;
18445;SDS011;9352;50.888;4.466;2023-03-23T09:21:02;2.03;;;1.35;;
18445;SDS011;9352;50.888;4.466;2023-03-23T09:23:30;5.47;;;1.52;;
18445;SDS011;9352;50.888;4.466;2023-03-23T09:25:59;4.22;;;1.60;;
18445;SDS011;9352;50.888;4.466;2023-03-23T09:28:26;3.03;;;1.40;;
18445;SDS011;9352;50.888;4.466;2023-03-23T09:30:56;3.22;;;1.50;;
18445;SDS011;9352;50.888;4.466;2023-03-23T09:33:24;11.55;;;1.73;;
18445;SDS011;9352;50.888;4.466;2023-03-23T09:35:52;3.47;;;1.60;;
18445;SDS011;9352;50.888;4.466;2023-03-23T09:38:20;2.30;;;1.60;;
18445;SDS011;9352;50.888;4.466;2023-03-23T09:40:48;3.03;;;1.75;;
18445;SDS011;9352;50.888;4.466;2023-03-23T09:43:27;6.93;;;1.77;;
18445;SDS011;9352;50.888;4.466;2023-03-23T09:46:08;2.90;;;1.60;;
18445;SDS011;9352;50.888;4.466;2023-03-23T09:48:46;3.08;;;1.50;;
18445;SDS011;9352;50.888;4.466;2023-03-23T09:51:24;4.43;;;2.33;;
18445;SDS011;9352;50.888;4.466;2023-03-23T09:54:00;6.35;;;1.42;;
18445;SDS011;9352;50.888;4.466;2023-03-23T09:56:33;6.30;;;1.40;;
18445;SDS011;9352;50.888;4.466;2023-03-23T09:59:01;2.65;;;1.30;;
18445;SDS011;9352;50.888;4.466;2023-03-23T10:01:36;1.73;;;1.55;;
18445;SDS011;9352;50.888;4.466;2023-03-23T10:04:07;4.88;;;1.63;;
18445;SDS011;9352;50.888;4.466;2023-03-23T10:06:40;3.55;;;1.55;;
18445;SDS011;9352;50.888;4.466;2023-03-23T10:09:11;3.50;;;1.83;;
18445;SDS011;9352;50.888;4.466;2023-03-23T10:11:45;6.15;;;1.65;;
18445;SDS011;9352;50.888;4.466;2023-03-23T10:14:25;2.92;;;1.67;;
18445;SDS011;9352;50.888;4.466;2023-03-23T10:16:59;3.28;;;1.70;;
18445;SDS011;9352;50.888;4.466;2023-03-23T10:19:33;3.92;;;1.80;;
18445;SDS011;9352;50.888;4.466;2023-03-23T10:22:08;6.90;;;1.88;;
18445;SDS011;9352;50.888;4.466;2023-03-23T10:24:41;3.70;;;1.98;;
18445;SDS011;9352;50.888;4.466;2023-03-23T10:27:18;6.05;;;2.08;;
18445;SDS011;9352;50.888;4.466;2023-03-23T10:29:57;4.53;;;2.00;;
18445;SDS011;9352;50.888;4.466;2023-03-23T10:32:36;4.18;;;1.85;;
18445;SDS011;9352;50.888;4.466;2023-03-23T10:35:09;3.17;;;1.77;;
18445;SDS011;9352;50.888;4.466;2023-03-23T10:37:41;2.70;;;1.80;;
18445;SDS011;9352;50.888;4.466;2023-03-23T10:40:15;1.98;;;1.80;;
18445;SDS011;9352;50.888;4.466;2023-03-23T10:42:45;4.25;;;1.90;;
18445;SDS011;9352;50.888;4.466;2023-03-23T10:45:14;3.80;;;2.22;;
18445;SDS011;9352;50.888;4.466;2023-03-23T10:47:45;4.15;;;1.90;;
18445;SDS011;9352;50.888;4.466;2023-03-23T10:50:16;3.95;;;1.92;;
18445;SDS011;9352;50.888;4.466;2023-03-23T10:52:49;2.75;;;2.08;;
18445;SDS011;9352;50.888;4.466;2023-03-23T10:55:20;7.13;;;1.90;;
18445;SDS011;9352;50.888;4.466;2023-03-23T10:57:58;5.53;;;2.17;;
18445;SDS011;9352;50.888;4.466;2023-03-23T11:00:27;2.97;;;1.75;;
18445;SDS011;9352;50.888;4.466;2023-03-23T11:02:58;4.80;;;2.30;;
18445;SDS011;9352;50.888;4.466;2023-03-23T11:05:31;7.07;;;2.08;;
18445;SDS011;9352;50.888;4.466;2023-03-23T11:08:01;12.30;;;2.35;;
18445;SDS011;9352;50.888;4.466;2023-03-23T11:10:34;8.70;;;2.17;;
18445;SDS011;9352;50.888;4.466;2023-03-23T11:13:03;3.83;;;2.13;;
18445;SDS011;9352;50.888;4.466;2023-03-23T11:15:35;5.18;;;2.33;;
18445;SDS011;9352;50.888;4.466;2023-03-23T11:18:05;6.75;;;2.08;;
18445;SDS011;9352;50.888;4.466;2023-03-23T11:20:37;2.95;;;2.00;;
18445;SDS011;9352;50.888;4.466;2023-03-23T11:23:17;5.47;;;2.38;;
18445;SDS011;9352;50.888;4.466;2023-03-23T11:25:53;4.85;;;2.20;;
18445;SDS011;9352;50.888;4.466;2023-03-23T11:28:25;9.25;;;3.13;;
18445;SDS011;9352;50.888;4.466;2023-03-23T11:30:55;6.78;;;2.03;;
18445;SDS011;9352;50.888;4.466;2023-03-23T11:33:25;5.60;;;2.65;;
18445;SDS011;9352;50.888;4.466;2023-03-23T11:35:54;7.97;;;2.30;;
18445;SDS011;9352;50.888;4.466;2023-03-23T11:38:22;7.63;;;2.95;;
18445;SDS011;9352;50.888;4.466;2023-03-23T11:40:54;7.22;;;1.95;;
18445;SDS011;9352;50.888;4.466;2023-03-23T11:43:22;5.20;;;2.30;;
18445;SDS011;9352;50.888;4.466;2023-03-23T11:45:54;9.63;;;3.13;;
18445;SDS011;9352;50.888;4.466;2023-03-23T11:48:29;9.18;;;2.45;;
18445;SDS011;9352;50.888;4.466;2023-03-23T11:51:04;6.32;;;2.30;;
18445;SDS011;9352;50.888;4.466;2023-03-23T11:53:41;9.15;;;2.17;;
18445;SDS011;9352;50.888;4.466;2023-03-23T11:56:17;8.23;;;2.58;;
18445;SDS011;9352;50.888;4.466;2023-03-23T11:58:50;7.50;;;2.15;;
18445;SDS011;9352;50.888;4.466;2023-03-23T12:01:24;5.05;;;2.05;;
18445;SDS011;9352;50.888;4.466;2023-03-23T12:10:08;6.07;;;2.13;;
18445;SDS011;9352;50.888;4.466;2023-03-23T12:12:48;13.52;;;2.00;;
18445;SDS011;9352;50.888;4.466;2023-03-23T12:15:19;6.53;;;1.75;;
18445;SDS011;9352;50.888;4.466;2023-03-23T12:17:52;7.28;;;2.22;;
18445;SDS011;9352;50.888;4.466;2023-03-23T12:20:28;7.85;;;2.00;;
18445;SDS011;9352;50.888;4.466;2023-03-23T12:23:07;4.18;;;1.88;;
18445;SDS011;9352;50.888;4.466;2023-03-23T12:25:49;5.25;;;2.20;;
18445;SDS011;9352;50.888;4.466;2023-03-23T12:28:31;7.13;;;2.33;;
18445;SDS011;9352;50.888;4.466;2023-03-23T12:31:07;6.63;;;1.90;;
18445;SDS011;9352;50.888;4.466;2023-03-23T12:33:42;4.70;;;1.80;;
18445;SDS011;9352;50.888;4.466;2023-03-23T12:36:19;4.10;;;1.58;;
18445;SDS011;9352;50.888;4.466;2023-03-23T12:39:10;6.70;;;2.13;;
18445;SDS011;9352;50.888;4.466;2023-03-23T12:41:54;6.20;;;2.40;;
18445;SDS011;9352;50.888;4.466;2023-03-23T12:44:31;8.57;;;2.22;;
18445;SDS011;9352;50.888;4.466;2023-03-23T12:47:07;6.20;;;2.30;;
18445;SDS011;9352;50.888;4.466;2023-03-23T12:49:56;8.23;;;2.25;;
18445;SDS011;9352;50.888;4.466;2023-03-23T12:52:26;6.45;;;2.08;;
18445;SDS011;9352;50.888;4.466;2023-03-23T12:54:59;12.65;;;2.40;;
18445;SDS011;9352;50.888;4.466;2023-03-23T12:57:31;7.18;;;2.15;;
18445;SDS011;9352;50.888;4.466;2023-03-23T13:00:05;9.70;;;2.38;;
18445;SDS011;9352;50.888;4.466;2023-03-23T13:02:39;8.05;;;2.17;;
18445;SDS011;9352;50.888;4.466;2023-03-23T13:05:12;8.30;;;2.60;;
18445;SDS011;9352;50.888;4.466;2023-03-23T13:07:53;8.65;;;2.67;;
18445;SDS011;9352;50.888;4.466;2023-03-23T13:10:23;6.28;;;2.35;;
18445;SDS011;9352;50.888;4.466;2023-03-23T13:12:53;9.40;;;2.00;;
18445;SDS011;9352;50.888;4.466;2023-03-23T13:15:25;5.30;;;2.22;;
18445;SDS011;9352;50.888;4.466;2023-03-23T13:17:59;6.63;;;2.03;;
18445;SDS011;9352;50.888;4.466;2023-03-23T13:20:37;9.57;;;3.20;;
18445;SDS011;9352;50.888;4.466;2023-03-23T13:23:28;21.92;;;3.15;;
18445;SDS011;9352;50.888;4.466;2023-03-23T13:25:59;14.10;;;3.42;;
18445;SDS011;9352;50.888;4.466;2023-03-23T13:28:29;8.55;;;2.53;;
18445;SDS011;9352;50.888;4.466;2023-03-23T13:31:00;19.15;;;3.08;;
18445;SDS011;9352;50.888;4.466;2023-03-23T13:33:29;11.48;;;2.75;;
18445;SDS011;9352;50.888;4.466;2023-03-23T13:36:02;12.82;;;3.10;;
18445;SDS011;9352;50.888;4.466;2023-03-23T13:38:44;11.70;;;2.65;;
18445;SDS011;9352;50.888;4.466;2023-03-23T13:41:14;5.55;;;2.20;;
18445;SDS011;9352;50.888;4.466;2023-03-23T13:43:43;12.88;;;2.80;;
18445;SDS011;9352;50.888;4.466;2023-03-23T13:46:23;8.82;;;2.30;;
18445;SDS011;9352;50.888;4.466;2023-03-23T13:49:02;12.00;;;2.60;;
18445;SDS011;9352;50.888;4.466;2023-03-23T13:51:47;8.48;;;2.17;;
18445;SDS011;9352;50.888;4.466;2023-03-23T13:54:23;9.25;;;2.58;;
18445;SDS011;9352;50.888;4.466;2023-03-23T13:56:56;7.93;;;2.63;;
18445;SDS011;9352;50.888;4.466;2023-03-23T13:59:31;14.77;;;3.50;;
18445;SDS011;9352;50.888;4.466;2023-03-23T14:05:08;14.45;;;2.90;;
18445;SDS011;9352;50.888;4.466;2023-03-23T14:07:53;9.40;;;2.67;;
18445;SDS011;9352;50.888;4.466;2023-03-23T14:10:24;8.52;;;2.28;;
18445;SDS011;9352;50.888;4.466;2023-03-23T14:12:57;12.68;;;2.72;;
18445;SDS011;9352;50.888;4.466;2023-03-23T14:15:28;6.35;;;2.22;;
18445;SDS011;9352;50.888;4.466;2023-03-23T14:17:57;10.07;;;2.42;;
18445;SDS011;9352;50.888;4.466;2023-03-23T14:20:30;9.82;;;2.30;;
18445;SDS011;9352;50.888;4.466;2023-03-23T14:22:59;7.45;;;2.17;;
18445;SDS011;9352;50.888;4.466;2023-03-23T14:25:27;11.20;;;2.63;;
18445;SDS011;9352;50.888;4.466;2023-03-23T14:27:56;7.32;;;2.22;;
18445;SDS011;9352;50.888;4.466;2023-03-23T14:30:24;8.55;;;2.85;;
18445;SDS011;9352;50.888;4.466;2023-03-23T14:32:54;9.95;;;2.20;;
18445;SDS011;9352;50.888;4.466;2023-03-23T14:35:34;9.13;;;2.72;;
18445;SDS011;9352;50.888;4.466;2023-03-23T14:38:02;9.13;;;2.47;;
18445;SDS011;9352;50.888;4.466;2023-03-23T14:40:30;11.65;;;2.63;;
18445;SDS011;9352;50.888;4.466;2023-03-23T14:42:57;11.30;;;2.95;;
18445;SDS011;9352;50.888;4.466;2023-03-23T14:45:25;9.82;;;3.42;;
18445;SDS011;9352;50.888;4.466;2023-03-23T14:47:54;13.82;;;2.75;;
18445;SDS011;9352;50.888;4.466;2023-03-23T14:50:26;14.50;;;3.22;;
18445;SDS011;9352;50.888;4.466;2023-03-23T14:52:59;11.40;;;2.83;;
18445;SDS011;9352;50.888;4.466;2023-03-23T14:55:30;10.82;;;2.88;;
18445;SDS011;9352;50.888;4.466;2023-03-23T14:58:05;13.88;;;3.05;;
18445;SDS011;9352;50.888;4.466;2023-03-23T15:00:34;8.43;;;2.30;;
18445;SDS011;9352;50.888;4.466;2023-03-23T15:03:05;10.88;;;2.35;;
18445;SDS011;9352;50.888;4.466;2023-03-23T15:05:40;8.00;;;2.20;;
18445;SDS011;9352;50.888;4.466;2023-03-23T15:08:12;9.90;;;2.00;;
18445;SDS011;9352;50.888;4.466;2023-03-23T15:10:41;10.02;;;2.70;;
18445;SDS011;9352;50.888;4.466;2023-03-23T15:13:10;6.97;;;2.60;;
18445;SDS011;9352;50.888;4.466;2023-03-23T15:15:38;5.32;;;2.80;;
18445;SDS011;9352;50.888;4.466;2023-03-23T15:18:14;9.48;;;3.00;;
18445;SDS011;9352;50.888;4.466;2023-03-23T15:20:54;11.88;;;3.15;;
18445;SDS011;9352;50.888;4.466;2023-03-23T15:23:22;8.45;;;2.60;;
18445;SDS011;9352;50.888;4.466;2023-03-23T15:25:53;8.80;;;2.88;;
18445;SDS011;9352;50.888;4.466;2023-03-23T15:28:22;10.63;;;3.13;;
18445;SDS011;9352;50.888;4.466;2023-03-23T15:30:57;9.63;;;2.95;;
18445;SDS011;9352;50.888;4.466;2023-03-23T15:33:26;9.40;;;2.38;;